Lancaster, OH (43130)

8:51 PM EDT en Septiembre 15, 2014 (GMT -0400)
KOHLANCA8 | Change Station
CLOSE
Current Station
Estación meteorológica personal
Location: Lancaster, OH
Altura: 856 ft
Estaciones meteorológicas cercanas

Alt 856 ft 39.72 °N, 82.57 °W | Updated 28 seconds ago

Muy nublado
Muy nublado
62.6 ° F
Sensación térmica 62.6 ° F
N
0.0
Viento Variable Viento desde Norte
Gusts 0.0 mph

Hoy
Alta -- | Baja -- ° F
--% Posibilidad de precipitaciones
Ayer
Alta -- | Baja -- ° F
Precip. -- pul
7:11 AM 7:39 PM
Gibosa menguante, 51% visible
Presión 30.04 pul
Visibilidad 10.0 Millas
Nubes Baja 10000 ft
Punto de rocío 54 ° F
Humedad 73%
Precipitaciones 0.00 pul
Espesor de la nieve No disponible.
UV 0 de una escala de 12
Polen 5.40 de una escala de 12
Ozono Buena
PM2.5 Buena
Flu Activity No disponible.
METAR KLHQ 152353Z AUTO 21005KT 10SM FEW100 18/11 A3004 RMK AO2 SLP170 T01830106 10228 20183 58026

More Conditions Fewer Conditions

Presión 30.04 pul
Visibilidad 10.0 Millas
Nubes Baja 10000 ft
Punto de rocío 54 ° F
Humedad 73%
Precipitaciones 0.00 pul
Espesor de la nieve No disponible.
UV 0 de una escala de 12
Polen 5.40 de una escala de 12
Ozono Buena
PM2.5 Buena
Flu Activity No disponible.
METAR KLHQ 152353Z AUTO 21005KT 10SM FEW100 18/11 A3004 RMK AO2 SLP170 T01830106 10228 20183 58026

More Conditions Fewer Conditions

10-Day Weather Forecast

Almanac

Astronomía

Sep. 15, 2014 Salida Puesta
Hora real 7:11 AM EDT 7:39 PM EDT
Crepúsculo civil 6:44 AM EDT 8:06 PM EDT
Crepúsculo náutico 6:12 AM EDT 8:37 PM EDT
Crepúsculo astronómico 5:39 AM EDT 9:10 PM EDT
Luna Sin salida de luna 2:09 PM EDT (9/15)
Horas de luz 13h 21m
Horas de luz
12h 27m
Tomorrow will be 2m 34s shorter.
Gibosa menguante, 51% of the Moon is Illuminated
Hoy
Gibosa menguante
Sep 15
Cuarto menguante
Sep 24
Nueva
Oct 1
Cuarto creciente
Oct 8
Luna llena

Extremos de hoy

Máximos del estado Bajos del estado

Community

WunderPhotos

Upload Photos

1,753,630 ¡fotos cargadas!

Nearby

Calidad del aire

  Calidad del aire Índice AQ Contaminante
Ayer Buena
OZONE
Ayer Buena
PM2.5
Real Buena
PM2.5
Real Buena
OZONE
Lunes Buena
OZONE
Lunes Buena
PM2.5
Martes Buena
OZONE
Martes Buena
PM2.5
Miércoles Buena
OZONE
Miércoles Buena
PM2.5
Jueves Buena
OZONE
Jueves Buena
PM2.5
Viernes Moderada
OZONE
Viernes Buena
PM2.5
Sábado Moderada
OZONE
Sábado Moderada
PM2.5

Grosos de nieve

Estación Profundido Altura
No tenemos constancia de nieve nueva.

Actividad de terremotos

Ciudad Distance Mag. Tiempo y dato
No hay informes recientes de la actividad sísmica.
Magnitud mínima muestra es 2,5.

Temperaturas de aguas costeras

Lugar Temperatura
Sin partes meteorológicos de las estaciones

Estaciones meteorológicas cercanas